Contact Us:
Email: info@sawbill.com
Phone: (218)663-7150
Fax: (218)663-7980
Mail: 4620 Sawbill Trail
Box 2129
Tofte, MN 55615


Powered by
Movable Type 3.15
 
Sawbill Weather History Archives: October 2016
Current Sawbill Weather History | « September 2016 | November 2016 »


Date

High
Temperature

Low
Temperature

Barometric
Pressure

Relative
Humidity 7AM

9 AM
Temperature

Moisture

Snow

10/31/16 50 39 29.80 76% 44 0
10/30/16 41 32 30.00 93% 38 0
10/29/16 44 38 30.15 78% 40 Trace
10/28/16 46 40 29.98 96% 44 .16"
10/27/16 43 38 30.00 98% 40 .03"
10/26/16 40 37 30.17 95% 37 0
10/25/16 44 28 30.28 81% 37 0
10/24/16 45 28 30.24 75% 28 0
10/23/16 42 32 30.19 83% 32 .51"
10/22/16 53 36 30.01 84% 38 .03"
10/21/16 43 35 30.02 85% 38 0
10/20/16 41 33 30.16 85% 35 .06"
10/19/16 42 33 30.14 76% 34 Trace
10/18/16 52 42 29.97 68% 42 Trace
10/17/16 54 46 29.77 98% 49 .07"
10/16/16 56 39 29.80 98% 46 .29"
10/15/16 61 39 29.96 76% 39 .05"
10/14/16 54 40 29.83 98% 54 0
10/13/16 44 33 30.06 79% 40 .06"
10/12/16 58 34 30.10 57% 34 0
10/10/16 66 45 30.02 67% 54 0
10/9/16 45 31 30.12 82% 45 0
10/8/16 45 29 30.28 79% 29 0
10/7/16 44 36 29.92 85% 37 .05"
10/6/16 59 38 29.98 95% 38 .51"
10/5/16 64 42 30.10 65% 42 .18"
10/4/16 60 43 30.00 49% 43 Trace
10/3/16 63 38 30.02 94% 50 0
10/2/16 66 38 30.10 75% 38 0
10/1/16 66 46 30.12 84% 47 0
 


Home I Trip Planning I Rentals and Outfitting I Reservations I Campgrounds I Sawbill Store I Sawbill News I Contact

© 1997 - 2017, Sawbill Canoe Outfitters, Inc. I Privacy Policy